sensor_id;sensor_type;location;lat;lon;timestamp;P1;durP1;ratioP1;P2;durP2;ratioP2
10343;SDS011;5217;43.960;10.954;2024-03-08T00:01:25;7.50;;;6.37;;
10343;SDS011;5217;43.960;10.954;2024-03-08T00:03:54;7.20;;;6.00;;
10343;SDS011;5217;43.960;10.954;2024-03-08T00:06:23;6.33;;;5.00;;
10343;SDS011;5217;43.960;10.954;2024-03-08T00:08:52;7.80;;;5.33;;
10343;SDS011;5217;43.960;10.954;2024-03-08T00:11:22;6.47;;;5.03;;
10343;SDS011;5217;43.960;10.954;2024-03-08T00:13:52;6.73;;;4.73;;
10343;SDS011;5217;43.960;10.954;2024-03-08T00:16:21;4.90;;;4.23;;
10343;SDS011;5217;43.960;10.954;2024-03-08T00:18:50;6.13;;;4.53;;
10343;SDS011;5217;43.960;10.954;2024-03-08T00:21:19;9.10;;;5.80;;
10343;SDS011;5217;43.960;10.954;2024-03-08T00:23:48;7.30;;;4.90;;
10343;SDS011;5217;43.960;10.954;2024-03-08T00:26:16;5.73;;;4.80;;
10343;SDS011;5217;43.960;10.954;2024-03-08T00:28:46;9.43;;;4.57;;
10343;SDS011;5217;43.960;10.954;2024-03-08T00:31:15;5.30;;;4.50;;
10343;SDS011;5217;43.960;10.954;2024-03-08T00:33:44;6.53;;;4.97;;
10343;SDS011;5217;43.960;10.954;2024-03-08T00:36:13;6.43;;;4.93;;
10343;SDS011;5217;43.960;10.954;2024-03-08T00:38:42;5.83;;;4.93;;
10343;SDS011;5217;43.960;10.954;2024-03-08T00:41:11;6.60;;;5.03;;
10343;SDS011;5217;43.960;10.954;2024-03-08T00:43:39;5.73;;;4.53;;
10343;SDS011;5217;43.960;10.954;2024-03-08T00:46:09;5.23;;;4.53;;
10343;SDS011;5217;43.960;10.954;2024-03-08T00:48:38;5.80;;;4.80;;
10343;SDS011;5217;43.960;10.954;2024-03-08T00:51:10;4.63;;;4.20;;
10343;SDS011;5217;43.960;10.954;2024-03-08T00:53:39;6.80;;;4.43;;
10343;SDS011;5217;43.960;10.954;2024-03-08T00:56:08;5.60;;;4.80;;
10343;SDS011;5217;43.960;10.954;2024-03-08T00:58:37;5.00;;;4.23;;
10343;SDS011;5217;43.960;10.954;2024-03-08T01:01:05;6.27;;;4.53;;
10343;SDS011;5217;43.960;10.954;2024-03-08T01:03:36;5.00;;;4.50;;
10343;SDS011;5217;43.960;10.954;2024-03-08T01:06:05;6.60;;;4.37;;
10343;SDS011;5217;43.960;10.954;2024-03-08T01:08:34;5.67;;;4.27;;
10343;SDS011;5217;43.960;10.954;2024-03-08T01:11:04;5.37;;;4.37;;
10343;SDS011;5217;43.960;10.954;2024-03-08T01:13:33;4.73;;;4.23;;
10343;SDS011;5217;43.960;10.954;2024-03-08T01:16:01;4.80;;;4.20;;
10343;SDS011;5217;43.960;10.954;2024-03-08T01:18:30;5.83;;;4.67;;
10343;SDS011;5217;43.960;10.954;2024-03-08T01:21:00;5.37;;;4.27;;
10343;SDS011;5217;43.960;10.954;2024-03-08T01:23:29;5.27;;;4.63;;
10343;SDS011;5217;43.960;10.954;2024-03-08T01:25:58;5.30;;;4.13;;
10343;SDS011;5217;43.960;10.954;2024-03-08T01:28:26;7.83;;;4.13;;
10343;SDS011;5217;43.960;10.954;2024-03-08T01:30:55;6.23;;;4.90;;
10343;SDS011;5217;43.960;10.954;2024-03-08T01:33:24;5.77;;;4.30;;
10343;SDS011;5217;43.960;10.954;2024-03-08T01:35:52;5.37;;;4.33;;
10343;SDS011;5217;43.960;10.954;2024-03-08T01:38:22;5.20;;;4.33;;
10343;SDS011;5217;43.960;10.954;2024-03-08T01:40:51;6.97;;;4.50;;
10343;SDS011;5217;43.960;10.954;2024-03-08T01:43:20;4.83;;;4.23;;
10343;SDS011;5217;43.960;10.954;2024-03-08T01:45:49;5.17;;;4.53;;
10343;SDS011;5217;43.960;10.954;2024-03-08T01:48:18;6.57;;;4.33;;
10343;SDS011;5217;43.960;10.954;2024-03-08T01:50:48;6.67;;;4.40;;
10343;SDS011;5217;43.960;10.954;2024-03-08T01:53:17;6.73;;;4.37;;
10343;SDS011;5217;43.960;10.954;2024-03-08T01:55:48;4.43;;;4.03;;
10343;SDS011;5217;43.960;10.954;2024-03-08T01:58:17;6.90;;;4.37;;
10343;SDS011;5217;43.960;10.954;2024-03-08T02:00:46;5.60;;;4.23;;
10343;SDS011;5217;43.960;10.954;2024-03-08T02:03:16;6.13;;;4.80;;
10343;SDS011;5217;43.960;10.954;2024-03-08T02:05:45;5.10;;;4.13;;
10343;SDS011;5217;43.960;10.954;2024-03-08T02:08:14;5.43;;;4.27;;
10343;SDS011;5217;43.960;10.954;2024-03-08T02:10:43;6.77;;;4.50;;
10343;SDS011;5217;43.960;10.954;2024-03-08T02:13:14;5.40;;;4.50;;
10343;SDS011;5217;43.960;10.954;2024-03-08T02:15:52;5.93;;;4.20;;
10343;SDS011;5217;43.960;10.954;2024-03-08T02:18:21;4.30;;;3.90;;
10343;SDS011;5217;43.960;10.954;2024-03-08T02:20:52;5.00;;;3.87;;
10343;SDS011;5217;43.960;10.954;2024-03-08T02:23:21;6.07;;;4.50;;
10343;SDS011;5217;43.960;10.954;2024-03-08T02:25:50;4.60;;;3.83;;
10343;SDS011;5217;43.960;10.954;2024-03-08T02:28:19;6.60;;;4.47;;
10343;SDS011;5217;43.960;10.954;2024-03-08T02:30:49;5.90;;;4.33;;
10343;SDS011;5217;43.960;10.954;2024-03-08T02:33:21;6.80;;;4.20;;
10343;SDS011;5217;43.960;10.954;2024-03-08T02:35:52;4.10;;;3.47;;
10343;SDS011;5217;43.960;10.954;2024-03-08T02:38:21;4.30;;;3.60;;
10343;SDS011;5217;43.960;10.954;2024-03-08T02:40:52;5.47;;;4.00;;
10343;SDS011;5217;43.960;10.954;2024-03-08T02:43:21;4.10;;;3.70;;
10343;SDS011;5217;43.960;10.954;2024-03-08T02:45:51;4.07;;;3.70;;
10343;SDS011;5217;43.960;10.954;2024-03-08T02:48:20;4.67;;;3.43;;
10343;SDS011;5217;43.960;10.954;2024-03-08T02:50:49;5.77;;;3.90;;
10343;SDS011;5217;43.960;10.954;2024-03-08T02:53:19;6.33;;;4.40;;
10343;SDS011;5217;43.960;10.954;2024-03-08T02:55:48;6.03;;;4.23;;
10343;SDS011;5217;43.960;10.954;2024-03-08T02:58:17;6.47;;;4.30;;
10343;SDS011;5217;43.960;10.954;2024-03-08T03:00:46;5.03;;;4.10;;
10343;SDS011;5217;43.960;10.954;2024-03-08T03:03:16;4.67;;;3.83;;
10343;SDS011;5217;43.960;10.954;2024-03-08T03:05:45;5.63;;;4.37;;
10343;SDS011;5217;43.960;10.954;2024-03-08T03:08:15;4.33;;;3.87;;
10343;SDS011;5217;43.960;10.954;2024-03-08T03:10:46;5.27;;;4.20;;
10343;SDS011;5217;43.960;10.954;2024-03-08T03:13:14;5.23;;;3.80;;
10343;SDS011;5217;43.960;10.954;2024-03-08T03:15:43;3.97;;;3.67;;
10343;SDS011;5217;43.960;10.954;2024-03-08T03:18:11;5.07;;;3.90;;
10343;SDS011;5217;43.960;10.954;2024-03-08T03:20:40;4.57;;;3.90;;
10343;SDS011;5217;43.960;10.954;2024-03-08T03:23:10;4.13;;;3.73;;
10343;SDS011;5217;43.960;10.954;2024-03-08T03:25:42;4.60;;;4.10;;
10343;SDS011;5217;43.960;10.954;2024-03-08T03:28:14;4.90;;;4.00;;
10343;SDS011;5217;43.960;10.954;2024-03-08T03:30:45;4.50;;;3.80;;
10343;SDS011;5217;43.960;10.954;2024-03-08T03:33:14;4.97;;;3.50;;
10343;SDS011;5217;43.960;10.954;2024-03-08T03:35:44;4.87;;;3.83;;
10343;SDS011;5217;43.960;10.954;2024-03-08T03:38:12;4.73;;;3.70;;
10343;SDS011;5217;43.960;10.954;2024-03-08T03:40:41;4.27;;;3.83;;
10343;SDS011;5217;43.960;10.954;2024-03-08T03:43:11;3.73;;;3.37;;
10343;SDS011;5217;43.960;10.954;2024-03-08T03:45:42;5.30;;;3.60;;
10343;SDS011;5217;43.960;10.954;2024-03-08T03:48:10;5.10;;;3.90;;
10343;SDS011;5217;43.960;10.954;2024-03-08T03:50:39;5.43;;;3.80;;
10343;SDS011;5217;43.960;10.954;2024-03-08T03:53:08;5.23;;;3.73;;
10343;SDS011;5217;43.960;10.954;2024-03-08T03:55:37;4.70;;;3.80;;
10343;SDS011;5217;43.960;10.954;2024-03-08T03:58:07;4.33;;;3.60;;
10343;SDS011;5217;43.960;10.954;2024-03-08T04:00:37;5.00;;;3.87;;
10343;SDS011;5217;43.960;10.954;2024-03-08T04:03:08;5.73;;;3.70;;
10343;SDS011;5217;43.960;10.954;2024-03-08T04:05:37;4.03;;;3.63;;
10343;SDS011;5217;43.960;10.954;2024-03-08T04:08:06;4.03;;;3.63;;
10343;SDS011;5217;43.960;10.954;2024-03-08T04:10:35;4.30;;;3.70;;
10343;SDS011;5217;43.960;10.954;2024-03-08T04:13:03;7.37;;;3.90;;
10343;SDS011;5217;43.960;10.954;2024-03-08T04:15:32;3.90;;;3.50;;
10343;SDS011;5217;43.960;10.954;2024-03-08T04:18:00;5.40;;;3.70;;
10343;SDS011;5217;43.960;10.954;2024-03-08T04:20:30;4.43;;;3.80;;
10343;SDS011;5217;43.960;10.954;2024-03-08T04:22:59;4.17;;;3.30;;
10343;SDS011;5217;43.960;10.954;2024-03-08T04:25:27;4.00;;;3.60;;
10343;SDS011;5217;43.960;10.954;2024-03-08T04:27:57;6.27;;;3.77;;
10343;SDS011;5217;43.960;10.954;2024-03-08T04:30:25;6.37;;;3.70;;
10343;SDS011;5217;43.960;10.954;2024-03-08T04:32:54;4.27;;;3.60;;
10343;SDS011;5217;43.960;10.954;2024-03-08T04:35:23;4.77;;;3.57;;
10343;SDS011;5217;43.960;10.954;2024-03-08T04:37:53;6.67;;;4.27;;
10343;SDS011;5217;43.960;10.954;2024-03-08T04:40:24;4.67;;;3.90;;
10343;SDS011;5217;43.960;10.954;2024-03-08T04:42:52;4.00;;;3.60;;
10343;SDS011;5217;43.960;10.954;2024-03-08T04:45:21;6.33;;;3.80;;
10343;SDS011;5217;43.960;10.954;2024-03-08T04:47:52;5.10;;;3.70;;
10343;SDS011;5217;43.960;10.954;2024-03-08T04:50:20;5.03;;;3.50;;
10343;SDS011;5217;43.960;10.954;2024-03-08T04:52:50;4.03;;;3.43;;
10343;SDS011;5217;43.960;10.954;2024-03-08T04:55:20;4.50;;;3.53;;
10343;SDS011;5217;43.960;10.954;2024-03-08T04:57:49;3.53;;;3.23;;
10343;SDS011;5217;43.960;10.954;2024-03-08T05:00:17;4.60;;;3.77;;
10343;SDS011;5217;43.960;10.954;2024-03-08T05:02:47;4.43;;;3.63;;
10343;SDS011;5217;43.960;10.954;2024-03-08T05:05:20;4.17;;;3.50;;
10343;SDS011;5217;43.960;10.954;2024-03-08T05:07:49;5.33;;;3.77;;
10343;SDS011;5217;43.960;10.954;2024-03-08T05:10:17;6.17;;;3.60;;
10343;SDS011;5217;43.960;10.954;2024-03-08T05:12:47;5.67;;;3.53;;
10343;SDS011;5217;43.960;10.954;2024-03-08T05:15:18;4.40;;;3.77;;
10343;SDS011;5217;43.960;10.954;2024-03-08T05:17:47;5.10;;;3.67;;
10343;SDS011;5217;43.960;10.954;2024-03-08T05:20:16;3.90;;;3.50;;
10343;SDS011;5217;43.960;10.954;2024-03-08T05:22:45;4.70;;;3.50;;
10343;SDS011;5217;43.960;10.954;2024-03-08T05:25:14;5.20;;;3.87;;
10343;SDS011;5217;43.960;10.954;2024-03-08T05:27:44;5.57;;;3.77;;
10343;SDS011;5217;43.960;10.954;2024-03-08T05:30:15;4.43;;;3.67;;
10343;SDS011;5217;43.960;10.954;2024-03-08T05:32:43;4.57;;;3.70;;
10343;SDS011;5217;43.960;10.954;2024-03-08T05:35:12;3.87;;;3.57;;
10343;SDS011;5217;43.960;10.954;2024-03-08T05:37:42;4.53;;;3.97;;
10343;SDS011;5217;43.960;10.954;2024-03-08T05:40:11;4.63;;;3.73;;
10343;SDS011;5217;43.960;10.954;2024-03-08T05:42:44;4.83;;;3.80;;
10343;SDS011;5217;43.960;10.954;2024-03-08T05:45:13;6.07;;;3.87;;
10343;SDS011;5217;43.960;10.954;2024-03-08T05:47:43;4.13;;;3.70;;
10343;SDS011;5217;43.960;10.954;2024-03-08T05:50:12;4.33;;;3.27;;
10343;SDS011;5217;43.960;10.954;2024-03-08T05:52:42;4.23;;;3.40;;
10343;SDS011;5217;43.960;10.954;2024-03-08T05:55:11;4.47;;;3.40;;
10343;SDS011;5217;43.960;10.954;2024-03-08T05:57:41;3.90;;;3.50;;
10343;SDS011;5217;43.960;10.954;2024-03-08T06:00:10;5.37;;;3.70;;
10343;SDS011;5217;43.960;10.954;2024-03-08T06:02:43;5.20;;;3.57;;
10343;SDS011;5217;43.960;10.954;2024-03-08T06:05:12;5.17;;;3.27;;
10343;SDS011;5217;43.960;10.954;2024-03-08T06:07:41;4.47;;;3.30;;
10343;SDS011;5217;43.960;10.954;2024-03-08T06:10:10;4.40;;;3.40;;
10343;SDS011;5217;43.960;10.954;2024-03-08T06:12:40;6.33;;;3.60;;
10343;SDS011;5217;43.960;10.954;2024-03-08T06:15:09;4.00;;;3.60;;
10343;SDS011;5217;43.960;10.954;2024-03-08T06:17:41;4.03;;;3.30;;
10343;SDS011;5217;43.960;10.954;2024-03-08T06:20:12;4.60;;;3.77;;
10343;SDS011;5217;43.960;10.954;2024-03-08T06:22:41;6.10;;;3.63;;
10343;SDS011;5217;43.960;10.954;2024-03-08T06:25:11;4.03;;;3.63;;
10343;SDS011;5217;43.960;10.954;2024-03-08T06:27:40;4.47;;;3.50;;
10343;SDS011;5217;43.960;10.954;2024-03-08T06:30:10;5.80;;;3.77;;
10343;SDS011;5217;43.960;10.954;2024-03-08T06:32:39;5.57;;;3.60;;
10343;SDS011;5217;43.960;10.954;2024-03-08T06:35:09;5.20;;;4.20;;
10343;SDS011;5217;43.960;10.954;2024-03-08T06:37:40;7.60;;;5.47;;
10343;SDS011;5217;43.960;10.954;2024-03-08T06:40:14;5.73;;;5.13;;
10343;SDS011;5217;43.960;10.954;2024-03-08T06:42:42;5.87;;;4.67;;
10343;SDS011;5217;43.960;10.954;2024-03-08T06:45:12;4.73;;;4.33;;
10343;SDS011;5217;43.960;10.954;2024-03-08T06:47:45;6.43;;;4.60;;
10343;SDS011;5217;43.960;10.954;2024-03-08T06:50:14;8.47;;;5.90;;
10343;SDS011;5217;43.960;10.954;2024-03-08T06:52:44;11.00;;;10.00;;
10343;SDS011;5217;43.960;10.954;2024-03-08T06:55:17;9.80;;;8.90;;
10343;SDS011;5217;43.960;10.954;2024-03-08T06:57:46;8.80;;;8.00;;
10343;SDS011;5217;43.960;10.954;2024-03-08T07:00:14;9.40;;;7.50;;
10343;SDS011;5217;43.960;10.954;2024-03-08T07:02:47;7.10;;;6.40;;
10343;SDS011;5217;43.960;10.954;2024-03-08T07:05:16;6.03;;;5.43;;
10343;SDS011;5217;43.960;10.954;2024-03-08T07:07:46;6.50;;;4.27;;
10343;SDS011;5217;43.960;10.954;2024-03-08T07:10:16;5.53;;;4.10;;
10343;SDS011;5217;43.960;10.954;2024-03-08T07:12:45;4.33;;;3.93;;
10343;SDS011;5217;43.960;10.954;2024-03-08T07:15:14;5.80;;;5.20;;
10343;SDS011;5217;43.960;10.954;2024-03-08T07:17:46;8.10;;;6.60;;
10343;SDS011;5217;43.960;10.954;2024-03-08T07:20:15;10.07;;;8.20;;
10343;SDS011;5217;43.960;10.954;2024-03-08T07:22:47;11.77;;;10.57;;
10343;SDS011;5217;43.960;10.954;2024-03-08T07:25:17;12.57;;;10.53;;
10343;SDS011;5217;43.960;10.954;2024-03-08T07:27:50;15.00;;;11.47;;
10343;SDS011;5217;43.960;10.954;2024-03-08T07:30:19;13.00;;;11.33;;
10343;SDS011;5217;43.960;10.954;2024-03-08T07:33:06;12.67;;;11.20;;
10343;SDS011;5217;43.960;10.954;2024-03-08T07:35:38;13.77;;;11.30;;
10343;SDS011;5217;43.960;10.954;2024-03-08T07:38:10;12.93;;;11.40;;
10343;SDS011;5217;43.960;10.954;2024-03-08T07:40:39;12.77;;;11.47;;
10343;SDS011;5217;43.960;10.954;2024-03-08T07:43:11;12.97;;;11.53;;
10343;SDS011;5217;43.960;10.954;2024-03-08T07:45:40;12.77;;;11.13;;
10343;SDS011;5217;43.960;10.954;2024-03-08T07:48:09;12.50;;;11.23;;
10343;SDS011;5217;43.960;10.954;2024-03-08T07:50:38;14.97;;;11.80;;
10343;SDS011;5217;43.960;10.954;2024-03-08T07:53:06;13.97;;;11.63;;
10343;SDS011;5217;43.960;10.954;2024-03-08T07:55:37;13.67;;;12.10;;
10343;SDS011;5217;43.960;10.954;2024-03-08T07:58:09;12.47;;;11.27;;
10343;SDS011;5217;43.960;10.954;2024-03-08T08:00:39;12.53;;;11.27;;
10343;SDS011;5217;43.960;10.954;2024-03-08T08:03:09;12.07;;;10.63;;
10343;SDS011;5217;43.960;10.954;2024-03-08T08:05:39;12.43;;;11.23;;
10343;SDS011;5217;43.960;10.954;2024-03-08T08:08:08;12.63;;;11.43;;
10343;SDS011;5217;43.960;10.954;2024-03-08T08:10:39;13.10;;;11.70;;
10343;SDS011;5217;43.960;10.954;2024-03-08T08:13:09;14.00;;;11.90;;
10343;SDS011;5217;43.960;10.954;2024-03-08T08:15:38;15.10;;;13.13;;
10343;SDS011;5217;43.960;10.954;2024-03-08T08:18:06;13.77;;;12.37;;
10343;SDS011;5217;43.960;10.954;2024-03-08T08:20:36;21.67;;;17.47;;
10343;SDS011;5217;43.960;10.954;2024-03-08T08:23:05;25.80;;;21.83;;
10343;SDS011;5217;43.960;10.954;2024-03-08T08:25:35;26.87;;;22.60;;
10343;SDS011;5217;43.960;10.954;2024-03-08T08:28:06;21.77;;;17.27;;
10343;SDS011;5217;43.960;10.954;2024-03-08T08:30:35;20.10;;;16.23;;
10343;SDS011;5217;43.960;10.954;2024-03-08T08:33:04;16.67;;;14.10;;
10343;SDS011;5217;43.960;10.954;2024-03-08T08:35:35;13.77;;;12.37;;
10343;SDS011;5217;43.960;10.954;2024-03-08T08:38:03;12.90;;;11.60;;
10343;SDS011;5217;43.960;10.954;2024-03-08T08:40:34;12.87;;;11.27;;
10343;SDS011;5217;43.960;10.954;2024-03-08T08:43:03;10.90;;;9.80;;
10343;SDS011;5217;43.960;10.954;2024-03-08T08:45:33;10.70;;;9.60;;
10343;SDS011;5217;43.960;10.954;2024-03-08T08:48:02;10.17;;;9.17;;
10343;SDS011;5217;43.960;10.954;2024-03-08T08:50:32;10.60;;;9.50;;
10343;SDS011;5217;43.960;10.954;2024-03-08T08:53:00;10.67;;;9.67;;
10343;SDS011;5217;43.960;10.954;2024-03-08T08:55:30;10.00;;;8.67;;
10343;SDS011;5217;43.960;10.954;2024-03-08T08:58:02;12.13;;;8.30;;
10343;SDS011;5217;43.960;10.954;2024-03-08T09:00:31;8.90;;;8.07;;
10343;SDS011;5217;43.960;10.954;2024-03-08T09:03:02;10.73;;;8.03;;
10343;SDS011;5217;43.960;10.954;2024-03-08T09:05:33;8.67;;;7.53;;
10343;SDS011;5217;43.960;10.954;2024-03-08T09:08:05;9.70;;;7.63;;
10343;SDS011;5217;43.960;10.954;2024-03-08T09:10:35;12.57;;;8.73;;
10343;SDS011;5217;43.960;10.954;2024-03-08T09:13:05;9.17;;;8.27;;
10343;SDS011;5217;43.960;10.954;2024-03-08T09:15:43;8.55;;;7.65;;
10343;SDS011;5217;43.960;10.954;2024-03-08T09:18:13;9.43;;;7.80;;
10343;SDS011;5217;43.960;10.954;2024-03-08T09:20:42;9.53;;;7.60;;
10343;SDS011;5217;43.960;10.954;2024-03-08T09:23:10;7.97;;;7.18;;
10343;SDS011;5217;43.960;10.954;2024-03-08T09:25:39;9.70;;;7.47;;
10343;SDS011;5217;43.960;10.954;2024-03-08T09:28:11;7.30;;;6.60;;
10343;SDS011;5217;43.960;10.954;2024-03-08T09:30:40;8.73;;;6.57;;
10343;SDS011;5217;43.960;10.954;2024-03-08T09:33:23;7.20;;;6.50;;
10343;SDS011;5217;43.960;10.954;2024-03-08T09:35:53;7.75;;;6.22;;
10343;SDS011;5217;43.960;10.954;2024-03-08T09:38:25;7.22;;;5.97;;
10343;SDS011;5217;43.960;10.954;2024-03-08T09:40:54;7.70;;;6.72;;
10343;SDS011;5217;43.960;10.954;2024-03-08T09:43:23;8.30;;;7.43;;
10343;SDS011;5217;43.960;10.954;2024-03-08T09:45:52;7.70;;;6.35;;
10343;SDS011;5217;43.960;10.954;2024-03-08T09:48:21;6.78;;;6.07;;
10343;SDS011;5217;43.960;10.954;2024-03-08T09:50:51;7.20;;;6.25;;
10343;SDS011;5217;43.960;10.954;2024-03-08T09:53:22;7.70;;;6.85;;
10343;SDS011;5217;43.960;10.954;2024-03-08T09:55:50;6.97;;;6.20;;
10343;SDS011;5217;43.960;10.954;2024-03-08T09:58:19;7.70;;;6.85;;
10343;SDS011;5217;43.960;10.954;2024-03-08T10:01:20;6.93;;;6.00;;
10343;SDS011;5217;43.960;10.954;2024-03-08T10:03:49;7.85;;;6.60;;
10343;SDS011;5217;43.960;10.954;2024-03-08T10:06:23;7.07;;;6.32;;
10343;SDS011;5217;43.960;10.954;2024-03-08T10:08:53;7.30;;;6.60;;
10343;SDS011;5217;43.960;10.954;2024-03-08T10:11:25;9.38;;;6.80;;
10343;SDS011;5217;43.960;10.954;2024-03-08T10:14:00;9.15;;;6.55;;
10343;SDS011;5217;43.960;10.954;2024-03-08T10:16:32;9.95;;;6.82;;
10343;SDS011;5217;43.960;10.954;2024-03-08T10:19:01;8.07;;;6.57;;
10343;SDS011;5217;43.960;10.954;2024-03-08T10:21:48;6.60;;;5.78;;
10343;SDS011;5217;43.960;10.954;2024-03-08T10:24:22;6.07;;;5.25;;
10343;SDS011;5217;43.960;10.954;2024-03-08T10:26:52;6.38;;;5.32;;
10343;SDS011;5217;43.960;10.954;2024-03-08T10:29:24;6.68;;;5.07;;
10343;SDS011;5217;43.960;10.954;2024-03-08T10:31:56;4.50;;;4.10;;
10343;SDS011;5217;43.960;10.954;2024-03-08T10:34:36;5.43;;;4.05;;
10343;SDS011;5217;43.960;10.954;2024-03-08T10:37:08;4.47;;;3.40;;
10343;SDS011;5217;43.960;10.954;2024-03-08T10:39:52;3.72;;;3.38;;
10343;SDS011;5217;43.960;10.954;2024-03-08T10:42:28;5.90;;;3.67;;
10343;SDS011;5217;43.960;10.954;2024-03-08T10:45:05;4.32;;;3.63;;
10343;SDS011;5217;43.960;10.954;2024-03-08T10:47:38;5.32;;;3.85;;
10343;SDS011;5217;43.960;10.954;2024-03-08T10:50:10;5.28;;;3.63;;
10343;SDS011;5217;43.960;10.954;2024-03-08T10:52:47;4.18;;;2.83;;
10343;SDS011;5217;43.960;10.954;2024-03-08T10:55:22;3.05;;;2.25;;
10343;SDS011;5217;43.960;10.954;2024-03-08T10:57:55;3.67;;;2.50;;
10343;SDS011;5217;43.960;10.954;2024-03-08T11:00:27;3.25;;;2.80;;
10343;SDS011;5217;43.960;10.954;2024-03-08T11:03:04;3.10;;;2.47;;
10343;SDS011;5217;43.960;10.954;2024-03-08T11:05:38;4.75;;;3.28;;
10343;SDS011;5217;43.960;10.954;2024-03-08T11:08:18;4.50;;;3.13;;
10343;SDS011;5217;43.960;10.954;2024-03-08T11:10:49;3.67;;;2.72;;
10343;SDS011;5217;43.960;10.954;2024-03-08T11:13:34;3.55;;;2.30;;
10343;SDS011;5217;43.960;10.954;2024-03-08T11:16:08;3.15;;;1.95;;
10343;SDS011;5217;43.960;10.954;2024-03-08T11:18:39;2.05;;;1.25;;
10343;SDS011;5217;43.960;10.954;2024-03-08T11:21:14;2.05;;;1.20;;
10343;SDS011;5217;43.960;10.954;2024-03-08T11:24:00;3.42;;;1.80;;
10343;SDS011;5217;43.960;10.954;2024-03-08T11:26:46;2.63;;;1.80;;
10343;SDS011;5217;43.960;10.954;2024-03-08T11:32:03;2.03;;;1.65;;
10343;SDS011;5217;43.960;10.954;2024-03-08T11:34:33;2.20;;;1.67;;
10343;SDS011;5217;43.960;10.954;2024-03-08T11:37:03;2.97;;;1.50;;
10343;SDS011;5217;43.960;10.954;2024-03-08T11:39:39;2.33;;;1.55;;
10343;SDS011;5217;43.960;10.954;2024-03-08T11:42:10;2.35;;;1.80;;
10343;SDS011;5217;43.960;10.954;2024-03-08T11:44:44;3.60;;;2.00;;
10343;SDS011;5217;43.960;10.954;2024-03-08T11:47:27;2.58;;;1.55;;
10343;SDS011;5217;43.960;10.954;2024-03-08T11:49:58;2.58;;;1.77;;
10343;SDS011;5217;43.960;10.954;2024-03-08T11:52:36;2.10;;;1.75;;
10343;SDS011;5217;43.960;10.954;2024-03-08T11:55:20;2.40;;;1.80;;
10343;SDS011;5217;43.960;10.954;2024-03-08T11:58:01;2.80;;;1.98;;
10343;SDS011;5217;43.960;10.954;2024-03-08T12:00:32;3.53;;;2.40;;
10343;SDS011;5217;43.960;10.954;2024-03-08T12:03:07;2.63;;;2.00;;
10343;SDS011;5217;43.960;10.954;2024-03-08T12:05:43;2.83;;;1.98;;
10343;SDS011;5217;43.960;10.954;2024-03-08T12:08:13;3.47;;;2.38;;
10343;SDS011;5217;43.960;10.954;2024-03-08T12:10:46;2.95;;;2.10;;
10343;SDS011;5217;43.960;10.954;2024-03-08T12:13:14;3.65;;;2.53;;
10343;SDS011;5217;43.960;10.954;2024-03-08T12:15:47;2.97;;;2.25;;
10343;SDS011;5217;43.960;10.954;2024-03-08T12:18:18;3.90;;;2.80;;
10343;SDS011;5217;43.960;10.954;2024-03-08T12:20:46;3.90;;;2.80;;
10343;SDS011;5217;43.960;10.954;2024-03-08T12:23:19;5.43;;;2.78;;
10343;SDS011;5217;43.960;10.954;2024-03-08T12:25:48;7.28;;;5.15;;
10343;SDS011;5217;43.960;10.954;2024-03-08T12:28:22;4.75;;;3.20;;
10343;SDS011;5217;43.960;10.954;2024-03-08T12:30:53;4.95;;;2.83;;
10343;SDS011;5217;43.960;10.954;2024-03-08T12:33:27;3.33;;;3.03;;
10343;SDS011;5217;43.960;10.954;2024-03-08T12:36:05;3.15;;;2.72;;
10343;SDS011;5217;43.960;10.954;2024-03-08T12:38:40;3.38;;;2.63;;
10343;SDS011;5217;43.960;10.954;2024-03-08T12:41:20;3.45;;;2.70;;
10343;SDS011;5217;43.960;10.954;2024-03-08T12:43:49;3.55;;;2.78;;
10343;SDS011;5217;43.960;10.954;2024-03-08T12:46:21;3.55;;;2.47;;
10343;SDS011;5217;43.960;10.954;2024-03-08T12:48:55;3.83;;;2.60;;
10343;SDS011;5217;43.960;10.954;2024-03-08T12:51:33;3.67;;;2.47;;
10343;SDS011;5217;43.960;10.954;2024-03-08T12:54:04;2.60;;;2.40;;
10343;SDS011;5217;43.960;10.954;2024-03-08T12:56:37;3.38;;;2.20;;
10343;SDS011;5217;43.960;10.954;2024-03-08T12:59:07;2.50;;;2.20;;
10343;SDS011;5217;43.960;10.954;2024-03-08T13:01:39;2.50;;;2.20;;
10343;SDS011;5217;43.960;10.954;2024-03-08T13:04:09;2.50;;;2.30;;
10343;SDS011;5217;43.960;10.954;2024-03-08T13:06:38;2.92;;;2.60;;
10343;SDS011;5217;43.960;10.954;2024-03-08T13:09:10;4.15;;;2.53;;
10343;SDS011;5217;43.960;10.954;2024-03-08T13:11:42;2.63;;;2.40;;
10343;SDS011;5217;43.960;10.954;2024-03-08T13:14:12;4.78;;;2.78;;
10343;SDS011;5217;43.960;10.954;2024-03-08T13:16:42;3.88;;;2.70;;
10343;SDS011;5217;43.960;10.954;2024-03-08T13:19:19;2.95;;;2.70;;
10343;SDS011;5217;43.960;10.954;2024-03-08T13:21:48;3.97;;;3.00;;
10343;SDS011;5217;43.960;10.954;2024-03-08T13:24:19;3.25;;;2.75;;
10343;SDS011;5217;43.960;10.954;2024-03-08T13:26:55;3.30;;;2.63;;
10343;SDS011;5217;43.960;10.954;2024-03-08T13:29:24;3.40;;;2.95;;
10343;SDS011;5217;43.960;10.954;2024-03-08T13:31:54;4.13;;;2.80;;
10343;SDS011;5217;43.960;10.954;2024-03-08T13:34:27;4.25;;;3.10;;
10343;SDS011;5217;43.960;10.954;2024-03-08T13:36:59;5.47;;;4.03;;
10343;SDS011;5217;43.960;10.954;2024-03-08T13:39:30;10.68;;;7.45;;
10343;SDS011;5217;43.960;10.954;2024-03-08T13:42:17;6.03;;;5.05;;
10343;SDS011;5217;43.960;10.954;2024-03-08T13:44:47;5.75;;;4.97;;
10343;SDS011;5217;43.960;10.954;2024-03-08T13:47:16;8.45;;;5.97;;
10343;SDS011;5217;43.960;10.954;2024-03-08T13:49:45;4.68;;;4.00;;
10343;SDS011;5217;43.960;10.954;2024-03-08T13:52:25;5.28;;;4.10;;
10343;SDS011;5217;43.960;10.954;2024-03-08T13:54:58;4.68;;;4.22;;
10343;SDS011;5217;43.960;10.954;2024-03-08T13:57:30;5.15;;;3.70;;
10343;SDS011;5217;43.960;10.954;2024-03-08T14:00:02;32.03;;;29.02;;
10343;SDS011;5217;43.960;10.954;2024-03-08T14:02:45;12.48;;;11.27;;
10343;SDS011;5217;43.960;10.954;2024-03-08T14:05:15;4.57;;;4.18;;
10343;SDS011;5217;43.960;10.954;2024-03-08T14:07:50;3.75;;;3.38;;
10343;SDS011;5217;43.960;10.954;2024-03-08T14:10:23;3.85;;;3.30;;
10343;SDS011;5217;43.960;10.954;2024-03-08T14:12:58;4.13;;;3.72;;
10343;SDS011;5217;43.960;10.954;2024-03-08T14:15:29;4.05;;;3.60;;
10343;SDS011;5217;43.960;10.954;2024-03-08T14:17:57;4.63;;;3.92;;
10343;SDS011;5217;43.960;10.954;2024-03-08T14:20:29;4.40;;;4.00;;
10343;SDS011;5217;43.960;10.954;2024-03-08T14:22:57;4.20;;;3.80;;
10343;SDS011;5217;43.960;10.954;2024-03-08T14:25:26;5.45;;;4.03;;
10343;SDS011;5217;43.960;10.954;2024-03-08T14:28:00;11.10;;;9.23;;
10343;SDS011;5217;43.960;10.954;2024-03-08T14:30:39;8.02;;;6.90;;
10343;SDS011;5217;43.960;10.954;2024-03-08T14:33:11;6.40;;;5.30;;
10343;SDS011;5217;43.960;10.954;2024-03-08T14:35:40;4.55;;;4.00;;
10343;SDS011;5217;43.960;10.954;2024-03-08T14:38:12;4.03;;;3.63;;
10343;SDS011;5217;43.960;10.954;2024-03-08T14:40:41;5.72;;;4.13;;
10343;SDS011;5217;43.960;10.954;2024-03-08T14:43:15;4.25;;;3.58;;
10343;SDS011;5217;43.960;10.954;2024-03-08T14:45:48;4.55;;;3.60;;
10343;SDS011;5217;43.960;10.954;2024-03-08T14:48:23;5.80;;;4.45;;
10343;SDS011;5217;43.960;10.954;2024-03-08T14:50:54;5.32;;;4.28;;
10343;SDS011;5217;43.960;10.954;2024-03-08T14:53:23;5.82;;;4.55;;
10343;SDS011;5217;43.960;10.954;2024-03-08T14:55:55;8.95;;;7.20;;
10343;SDS011;5217;43.960;10.954;2024-03-08T14:58:40;8.38;;;6.93;;
10343;SDS011;5217;43.960;10.954;2024-03-08T15:01:12;6.88;;;6.18;;
10343;SDS011;5217;43.960;10.954;2024-03-08T15:03:44;9.75;;;7.60;;
10343;SDS011;5217;43.960;10.954;2024-03-08T15:06:15;7.93;;;6.35;;
10343;SDS011;5217;43.960;10.954;2024-03-08T15:08:48;6.90;;;5.32;;
10343;SDS011;5217;43.960;10.954;2024-03-08T15:11:18;6.22;;;4.82;;